createdAt,value
2023-02-05T00:00:26.468Z,3.76
2023-02-05T00:01:26.521Z,3.82
2023-02-05T00:02:26.602Z,3.70
2023-02-05T00:03:26.613Z,3.71
2023-02-05T00:04:26.681Z,3.67
2023-02-05T00:05:26.684Z,3.54
2023-02-05T00:06:26.712Z,3.54
2023-02-05T00:07:26.763Z,3.52
2023-02-05T00:08:26.805Z,3.36
2023-02-05T00:09:26.878Z,3.34
2023-02-05T00:10:26.878Z,3.36
2023-02-05T00:11:26.925Z,3.39
2023-02-05T00:12:26.960Z,3.52
2023-02-05T00:13:27.005Z,3.43
2023-02-05T00:14:27.071Z,3.40
2023-02-05T00:15:27.088Z,3.40
2023-02-05T00:16:27.190Z,3.42
2023-02-05T00:17:27.160Z,3.40
2023-02-05T00:18:27.248Z,3.40
2023-02-05T00:19:27.250Z,3.34
2023-02-05T00:20:27.290Z,3.33
2023-02-05T00:21:27.361Z,3.36
2023-02-05T00:22:27.373Z,3.36
2023-02-05T00:23:27.413Z,3.40
2023-02-05T00:24:27.445Z,3.31
2023-02-05T00:25:27.493Z,3.34
2023-02-05T00:26:27.576Z,3.30
2023-02-05T00:27:27.575Z,3.16
2023-02-05T00:28:27.610Z,3.10
2023-02-05T00:29:27.651Z,3.07
2023-02-05T00:30:27.719Z,3.07
2023-02-05T00:31:27.842Z,3.07
2023-02-05T00:32:27.780Z,2.97
2023-02-05T00:33:27.826Z,3.02
2023-02-05T00:34:27.888Z,3.03
2023-02-05T00:35:27.904Z,3.03
2023-02-05T00:36:27.943Z,2.97
2023-02-05T00:37:27.980Z,3.02
2023-02-05T00:38:28.015Z,2.94
2023-02-05T00:39:28.092Z,2.92
2023-02-05T00:40:28.100Z,2.94
2023-02-05T00:41:28.138Z,2.89
2023-02-05T00:42:28.184Z,2.74
2023-02-05T00:43:28.237Z,2.85
2023-02-05T00:44:28.293Z,2.77
2023-02-05T00:45:28.310Z,2.76
2023-02-05T00:46:28.393Z,2.61
2023-02-05T00:47:28.384Z,2.58
2023-02-05T00:48:28.427Z,2.51
2023-02-05T00:49:28.474Z,2.51
2023-02-05T00:50:28.546Z,2.46
2023-02-05T00:51:28.547Z,2.40
2023-02-05T00:52:28.616Z,2.48
2023-02-05T00:53:28.629Z,2.51
2023-02-05T00:54:28.668Z,2.49
2023-02-05T00:55:28.734Z,2.46
2023-02-05T00:56:28.742Z,2.48
2023-02-05T00:57:28.788Z,2.48
2023-02-05T00:58:28.831Z,2.52
2023-02-05T00:59:28.884Z,2.49
2023-02-05T01:00:28.933Z,2.44
2023-02-05T01:01:28.969Z,2.48
2023-02-05T01:02:29.088Z,2.44
2023-02-05T01:03:29.052Z,2.45
2023-02-05T01:04:29.065Z,2.37
2023-02-05T01:05:29.105Z,2.40
2023-02-05T01:06:29.153Z,2.38
2023-02-05T01:07:29.185Z,2.44
2023-02-05T01:08:29.248Z,2.33
2023-02-05T01:09:29.275Z,2.41
2023-02-05T01:10:29.334Z,2.30
2023-02-05T01:11:29.390Z,2.41
2023-02-05T01:12:29.399Z,2.26
2023-02-05T01:13:29.454Z,2.27
2023-02-05T01:14:29.474Z,2.30
2023-02-05T01:15:29.515Z,2.20
2023-02-05T01:16:29.574Z,2.22
2023-02-05T01:17:29.586Z,2.33
2023-02-05T01:18:29.627Z,2.31
2023-02-05T01:19:29.679Z,2.19
2023-02-05T01:20:29.705Z,2.20
2023-02-05T01:21:29.784Z,2.10
2023-02-05T01:22:29.820Z,2.12
2023-02-05T01:23:29.864Z,2.13
2023-02-05T01:24:29.876Z,2.17
2023-02-05T01:25:38.014Z,2.10
2023-02-05T01:26:29.951Z,2.12
2023-02-05T01:27:29.985Z,2.01
2023-02-05T01:28:30.046Z,1.91
2023-02-05T01:29:30.070Z,1.93
2023-02-05T01:30:30.104Z,1.91
2023-02-05T01:31:30.264Z,1.85
2023-02-05T01:32:30.182Z,1.89
2023-02-05T01:33:30.249Z,1.90
2023-02-05T01:34:30.265Z,1.75
2023-02-05T01:35:30.306Z,1.73
2023-02-05T01:36:30.345Z,1.82
2023-02-05T01:37:30.401Z,1.80
2023-02-05T01:38:30.449Z,1.68
2023-02-05T01:39:30.453Z,1.68
2023-02-05T01:40:30.531Z,1.83
2023-02-05T01:41:30.543Z,1.76
2023-02-05T01:42:30.582Z,1.79
2023-02-05T01:43:30.620Z,1.80
2023-02-05T01:44:30.666Z,1.69
2023-02-05T01:45:30.738Z,1.68
2023-02-05T01:46:30.771Z,1.51
2023-02-05T01:47:30.802Z,1.46
2023-02-05T01:48:30.809Z,1.46
2023-02-05T01:49:30.852Z,1.42
2023-02-05T01:50:30.888Z,1.43
2023-02-05T01:51:30.933Z,1.37
2023-02-05T01:52:30.995Z,1.40
2023-02-05T01:53:31.003Z,1.37
2023-02-05T01:54:31.047Z,1.50
2023-02-05T01:55:31.186Z,1.42
2023-02-05T01:56:31.154Z,1.50
2023-02-05T01:57:31.159Z,1.46
2023-02-05T01:58:31.205Z,1.46
2023-02-05T01:59:31.241Z,1.47
2023-02-05T02:00:31.275Z,1.54
2023-02-05T02:01:31.374Z,1.44
2023-02-05T02:02:31.382Z,1.54
2023-02-05T02:03:31.400Z,1.46
2023-02-05T02:04:31.433Z,1.51
2023-02-05T02:05:31.685Z,1.50
2023-02-05T02:06:31.538Z,1.44
2023-02-05T02:07:31.557Z,1.51
2023-02-05T02:08:31.590Z,1.60
2023-02-05T02:09:31.630Z,1.60
2023-02-05T02:10:31.679Z,1.55
2023-02-05T02:11:31.731Z,1.58
2023-02-05T02:12:31.764Z,1.62
2023-02-05T02:13:31.829Z,1.51
2023-02-05T02:14:31.837Z,1.61
2023-02-05T02:15:32.165Z,1.57
2023-02-05T02:16:31.913Z,1.55
2023-02-05T02:17:31.971Z,1.55
2023-02-05T02:18:32.009Z,1.52
2023-02-05T02:19:32.026Z,1.69
2023-02-05T02:20:32.083Z,1.64
2023-02-05T02:21:32.101Z,1.68
2023-02-05T02:22:32.155Z,1.71
2023-02-05T02:23:32.186Z,1.65
2023-02-05T02:24:32.229Z,1.64
2023-02-05T02:25:32.646Z,1.61
2023-02-05T02:26:33.607Z,1.54
2023-02-05T02:27:32.374Z,1.62
2023-02-05T02:28:32.396Z,1.68
2023-02-05T02:29:32.451Z,1.69
2023-02-05T02:30:32.502Z,1.64
2023-02-05T02:31:32.596Z,1.68
2023-02-05T02:32:32.560Z,1.64
2023-02-05T02:33:32.589Z,1.64
2023-02-05T02:34:32.645Z,1.68
2023-02-05T02:35:32.885Z,1.57
2023-02-05T02:36:32.693Z,1.71
2023-02-05T02:37:32.777Z,1.72
2023-02-05T02:38:32.787Z,1.69
2023-02-05T02:39:32.822Z,1.62
2023-02-05T02:40:32.857Z,1.65
2023-02-05T02:41:32.918Z,1.54
2023-02-05T02:42:32.941Z,1.40
2023-02-05T02:43:32.970Z,1.43
2023-02-05T02:44:33.016Z,1.39
2023-02-05T02:45:33.338Z,1.34
2023-02-05T02:46:33.167Z,1.46
2023-02-05T02:47:33.134Z,1.39
2023-02-05T02:48:33.199Z,1.39
2023-02-05T02:49:33.222Z,1.52
2023-02-05T02:50:33.285Z,1.52
2023-02-05T02:51:33.298Z,1.57
2023-02-05T02:52:33.346Z,1.57
2023-02-05T02:53:33.379Z,1.61
2023-02-05T02:54:33.409Z,1.58
2023-02-05T02:55:33.803Z,1.61
2023-02-05T02:56:33.501Z,1.57
2023-02-05T02:57:33.559Z,1.57
2023-02-05T02:58:33.568Z,1.54
2023-02-05T02:59:33.608Z,1.54
2023-02-05T03:00:33.735Z,1.54
2023-02-05T03:01:33.696Z,1.50
2023-02-05T03:02:33.725Z,1.57
2023-02-05T03:03:33.791Z,1.50
2023-02-05T03:04:33.804Z,1.54
2023-02-05T03:05:34.083Z,1.57
2023-02-05T03:06:33.887Z,1.55
2023-02-05T03:07:33.931Z,1.50
2023-02-05T03:08:33.993Z,1.58
2023-02-05T03:09:34.017Z,1.55
2023-02-05T03:10:34.052Z,1.52
2023-02-05T03:11:34.083Z,1.52
2023-02-05T03:12:34.124Z,1.50
2023-02-05T03:13:34.187Z,1.50
2023-02-05T03:14:34.216Z,1.51
2023-02-05T03:15:34.492Z,1.46
2023-02-05T03:16:34.353Z,1.47
2023-02-05T03:17:34.323Z,1.43
2023-02-05T03:18:34.383Z,1.46
2023-02-05T03:19:34.398Z,1.50
2023-02-05T03:20:35.015Z,1.46
2023-02-05T03:21:34.509Z,1.47
2023-02-05T03:22:34.527Z,1.47
2023-02-05T03:23:34.551Z,1.39
2023-02-05T03:24:34.593Z,1.36
2023-02-05T03:25:34.879Z,1.37
2023-02-05T03:26:34.703Z,1.33
2023-02-05T03:27:34.718Z,1.33
2023-02-05T03:28:34.748Z,1.28
2023-02-05T03:29:34.789Z,1.25
2023-02-05T03:30:34.873Z,1.24
2023-02-05T03:31:34.943Z,1.16
2023-02-05T03:32:34.916Z,1.25
2023-02-05T03:33:34.948Z,1.24
2023-02-05T03:34:34.993Z,1.28
2023-02-05T03:35:35.421Z,1.21
2023-02-05T03:36:35.062Z,1.24
2023-02-05T03:37:35.102Z,1.16
2023-02-05T03:38:35.143Z,1.21
2023-02-05T03:39:35.206Z,1.16
2023-02-05T03:40:35.227Z,1.15
2023-02-05T03:41:35.267Z,1.10
2023-02-05T03:42:35.305Z,1.21
2023-02-05T03:43:35.345Z,1.21
2023-02-05T03:44:42.600Z,1.21
2023-02-05T03:45:35.747Z,1.18
2023-02-05T03:46:35.465Z,1.08
2023-02-05T03:47:36.055Z,1.04
2023-02-05T03:48:35.545Z,1.01
2023-02-05T03:49:35.581Z,1.08
2023-02-05T03:50:35.637Z,1.18
2023-02-05T03:51:35.693Z,1.18
2023-02-05T03:52:35.729Z,1.15
2023-02-05T03:53:35.727Z,1.24
2023-02-05T03:54:35.776Z,1.22
2023-02-05T03:55:36.054Z,1.26
2023-02-05T03:56:35.877Z,1.29
2023-02-05T03:57:35.880Z,1.29
2023-02-05T03:58:35.918Z,1.26
2023-02-05T03:59:35.968Z,1.32
2023-02-05T04:00:35.998Z,1.36
2023-02-05T04:01:36.066Z,1.36
2023-02-05T04:02:36.118Z,1.36
2023-02-05T04:03:36.123Z,1.36
2023-02-05T04:04:36.177Z,1.43
2023-02-05T04:05:36.386Z,1.46
2023-02-05T04:06:36.236Z,1.50
2023-02-05T04:07:36.276Z,1.50
2023-02-05T04:08:36.334Z,1.52
2023-02-05T04:09:36.349Z,1.57
2023-02-05T04:10:36.400Z,1.64
2023-02-05T04:11:36.454Z,1.68
2023-02-05T04:12:36.475Z,1.71
2023-02-05T04:13:36.514Z,1.68
2023-02-05T04:14:36.553Z,1.69
2023-02-05T04:15:36.703Z,1.78
2023-02-05T04:16:36.651Z,1.82
2023-02-05T04:17:36.685Z,1.65
2023-02-05T04:18:36.717Z,1.82
2023-02-05T04:19:36.767Z,1.68
2023-02-05T04:20:36.781Z,1.73
2023-02-05T04:21:36.885Z,1.62
2023-02-05T04:22:36.861Z,1.68
2023-02-05T04:23:36.933Z,1.62
2023-02-05T04:24:36.938Z,1.65
2023-02-05T04:25:37.042Z,1.75
2023-02-05T04:26:37.027Z,1.69
2023-02-05T04:27:37.096Z,1.82
2023-02-05T04:28:37.143Z,1.80
2023-02-05T04:29:37.146Z,1.72
2023-02-05T04:30:37.207Z,1.75
2023-02-05T04:31:37.247Z,1.85
2023-02-05T04:32:37.264Z,1.87
2023-02-05T04:33:37.323Z,1.89
2023-02-05T04:34:37.342Z,1.91
2023-02-05T04:35:37.411Z,1.97
2023-02-05T04:36:37.416Z,1.85
2023-02-05T04:37:37.467Z,1.90
2023-02-05T04:38:37.496Z,1.87
2023-02-05T04:39:37.572Z,1.85
2023-02-05T04:40:37.573Z,1.89
2023-02-05T04:41:37.622Z,1.97
2023-02-05T04:42:37.669Z,1.98
2023-02-05T04:43:37.712Z,1.97
2023-02-05T04:44:37.765Z,1.93
2023-02-05T04:45:37.852Z,1.98
2023-02-05T04:46:37.812Z,1.99
2023-02-05T04:47:37.850Z,1.98
2023-02-05T04:48:37.890Z,1.91
2023-02-05T04:49:37.961Z,1.94
2023-02-05T04:50:37.978Z,1.94
2023-02-05T04:51:38.018Z,1.93
2023-02-05T04:52:38.051Z,1.93
2023-02-05T04:53:38.100Z,1.93
2023-02-05T04:54:38.162Z,1.97
2023-02-05T04:55:38.199Z,1.91
2023-02-05T04:56:38.217Z,1.91
2023-02-05T04:57:38.287Z,1.93
2023-02-05T04:58:38.285Z,1.93
2023-02-05T04:59:38.334Z,1.85
2023-02-05T05:00:38.373Z,1.78
2023-02-05T05:01:38.415Z,1.76
2023-02-05T05:02:38.515Z,1.80
2023-02-05T05:03:38.492Z,1.75
2023-02-05T05:04:38.525Z,1.75
2023-02-05T05:05:38.571Z,1.79
2023-02-05T05:06:38.632Z,1.73
2023-02-05T05:07:38.653Z,1.72
2023-02-05T05:08:38.682Z,1.64
2023-02-05T05:09:38.725Z,1.57
2023-02-05T05:10:38.772Z,1.50
2023-02-05T05:11:38.826Z,1.52
2023-02-05T05:12:38.850Z,1.36
2023-02-05T05:13:38.893Z,1.39
2023-02-05T05:14:38.953Z,1.39
2023-02-05T05:15:39.065Z,1.36
2023-02-05T05:16:39.003Z,1.46
2023-02-05T05:17:39.035Z,1.37
2023-02-05T05:18:39.095Z,1.42
2023-02-05T05:19:39.127Z,1.39
2023-02-05T05:20:39.974Z,1.42
2023-02-05T05:21:39.193Z,1.44
2023-02-05T05:22:39.240Z,1.43
2023-02-05T05:23:39.295Z,1.50
2023-02-05T05:24:39.312Z,1.50
2023-02-05T05:25:39.378Z,1.52
2023-02-05T05:26:40.061Z,1.57
2023-02-05T05:27:39.432Z,1.55
2023-02-05T05:28:39.482Z,1.57
2023-02-05T05:29:39.510Z,1.68
2023-02-05T05:30:39.576Z,1.65
2023-02-05T05:31:39.604Z,1.64
2023-02-05T05:32:39.635Z,1.61
2023-02-05T05:33:39.677Z,1.64
2023-02-05T05:34:39.728Z,1.68
2023-02-05T05:35:39.777Z,1.61
2023-02-05T05:36:39.799Z,1.68
2023-02-05T05:37:39.827Z,1.69
2023-02-05T05:38:39.893Z,1.72
2023-02-05T05:39:39.914Z,1.68
2023-02-05T05:40:39.942Z,1.69
2023-02-05T05:41:39.997Z,1.69
2023-02-05T05:42:40.034Z,1.62
2023-02-05T05:43:40.114Z,1.64
2023-02-05T05:44:40.106Z,1.60
2023-02-05T05:45:40.155Z,1.75
2023-02-05T05:46:40.185Z,1.82
2023-02-05T05:47:40.240Z,1.64
2023-02-05T05:48:40.297Z,1.76
2023-02-05T05:49:40.307Z,1.68
2023-02-05T05:50:40.339Z,1.64
2023-02-05T05:51:40.379Z,1.73
2023-02-05T05:52:40.419Z,1.72
2023-02-05T05:53:40.487Z,1.73
2023-02-05T05:54:40.497Z,1.78
2023-02-05T05:55:40.546Z,1.78
2023-02-05T05:56:40.592Z,1.83
2023-02-05T05:57:40.612Z,1.79
2023-02-05T05:58:40.680Z,1.80
2023-02-05T05:59:40.699Z,1.71
2023-02-05T06:00:40.751Z,1.87
2023-02-05T06:01:40.770Z,1.87
2023-02-05T06:02:40.838Z,1.90
2023-02-05T06:03:40.893Z,1.79
2023-02-05T06:04:40.961Z,1.79
2023-02-05T06:05:48.594Z,1.75
2023-02-05T06:06:40.969Z,1.73
2023-02-05T06:07:41.026Z,1.69
2023-02-05T06:08:41.072Z,1.69
2023-02-05T06:09:41.090Z,1.65
2023-02-05T06:10:41.130Z,1.60
2023-02-05T06:11:41.166Z,1.58
2023-02-05T06:12:41.219Z,1.52
2023-02-05T06:13:41.272Z,1.68
2023-02-05T06:14:41.281Z,1.65
2023-02-05T06:15:41.348Z,1.69
2023-02-05T06:16:41.390Z,1.73
2023-02-05T06:17:41.398Z,1.69
2023-02-05T06:18:41.456Z,1.71
2023-02-05T06:19:41.500Z,1.69
2023-02-05T06:20:41.529Z,1.68
2023-02-05T06:21:41.589Z,1.71
2023-02-05T06:22:41.597Z,1.76
2023-02-05T06:23:41.648Z,1.78
2023-02-05T06:24:41.679Z,1.75
2023-02-05T06:25:41.759Z,1.78
2023-02-05T06:26:41.753Z,1.82
2023-02-05T06:27:41.901Z,1.80
2023-02-05T06:28:41.834Z,1.78
2023-02-05T06:29:41.923Z,1.82
2023-02-05T06:30:41.975Z,1.64
2023-02-05T06:31:42.069Z,1.80
2023-02-05T06:32:42.001Z,1.79
2023-02-05T06:33:42.042Z,1.87
2023-02-05T06:34:42.100Z,1.83
2023-02-05T06:35:42.113Z,1.90
2023-02-05T06:36:42.172Z,1.93
2023-02-05T06:37:48.060Z,1.91
2023-02-05T06:38:42.251Z,1.98
2023-02-05T06:39:42.284Z,1.93
2023-02-05T06:40:42.338Z,1.94
2023-02-05T06:41:42.372Z,2.01
2023-02-05T06:42:42.392Z,1.90
2023-02-05T06:43:42.430Z,1.94
2023-02-05T06:44:42.473Z,1.98
2023-02-05T06:45:42.516Z,1.93
2023-02-05T06:46:42.657Z,1.94
2023-02-05T06:47:42.600Z,1.93
2023-02-05T06:48:42.636Z,1.93
2023-02-05T06:49:42.686Z,1.98
2023-02-05T06:50:42.709Z,1.90
2023-02-05T06:51:42.782Z,1.99
2023-02-05T06:52:42.793Z,1.98
2023-02-05T06:53:42.825Z,1.97
2023-02-05T06:54:42.870Z,1.93
2023-02-05T06:55:42.936Z,1.89
2023-02-05T06:56:42.956Z,1.99
2023-02-05T06:57:42.996Z,2.06
2023-02-05T06:58:43.066Z,2.02
2023-02-05T06:59:43.073Z,2.01
2023-02-05T07:00:43.154Z,2.06
2023-02-05T07:01:43.148Z,2.09
2023-02-05T07:02:43.221Z,2.06
2023-02-05T07:03:43.261Z,2.09
2023-02-05T07:04:43.276Z,2.06
2023-02-05T07:05:43.308Z,2.13
2023-02-05T07:06:43.356Z,2.13
2023-02-05T07:07:43.389Z,2.16
2023-02-05T07:08:43.452Z,2.15
2023-02-05T07:09:43.481Z,2.10
2023-02-05T07:10:43.520Z,2.08
2023-02-05T07:11:43.550Z,2.06
2023-02-05T07:12:43.597Z,2.08
2023-02-05T07:13:43.661Z,2.09
2023-02-05T07:14:43.672Z,2.10
2023-02-05T07:15:43.731Z,2.09
2023-02-05T07:16:43.783Z,2.22
2023-02-05T07:17:43.800Z,2.28
2023-02-05T07:18:43.873Z,2.28
2023-02-05T07:19:43.878Z,2.31
2023-02-05T07:20:43.924Z,2.31
2023-02-05T07:21:43.961Z,2.33
2023-02-05T07:22:44.000Z,2.27
2023-02-05T07:23:44.051Z,2.33
2023-02-05T07:24:44.139Z,2.40
2023-02-05T07:25:44.121Z,2.35
2023-02-05T07:26:44.170Z,2.35
2023-02-05T07:27:44.202Z,2.49
2023-02-05T07:28:44.245Z,2.37
2023-02-05T07:29:44.312Z,2.37
2023-02-05T07:30:44.357Z,2.41
2023-02-05T07:31:44.450Z,2.49
2023-02-05T07:32:44.408Z,2.58
2023-02-05T07:33:44.433Z,2.58
2023-02-05T07:34:44.519Z,2.66
2023-02-05T07:35:44.516Z,2.77
2023-02-05T07:36:44.553Z,2.66
2023-02-05T07:37:44.601Z,2.70
2023-02-05T07:38:45.604Z,2.76
2023-02-05T07:39:44.704Z,2.87
2023-02-05T07:40:44.768Z,2.79
2023-02-05T07:41:44.759Z,2.89
2023-02-05T07:42:44.836Z,2.81
2023-02-05T07:43:44.841Z,2.85
2023-02-05T07:44:44.913Z,2.79
2023-02-05T07:45:44.921Z,2.76
2023-02-05T07:46:45.069Z,2.89
2023-02-05T07:47:45.003Z,2.85
2023-02-05T07:48:45.043Z,2.87
2023-02-05T07:49:45.099Z,2.94
2023-02-05T07:50:45.115Z,2.98
2023-02-05T07:51:45.155Z,2.95
2023-02-05T07:52:45.219Z,3.09
2023-02-05T07:53:45.243Z,3.09
2023-02-05T07:54:45.277Z,3.05
2023-02-05T07:55:45.314Z,3.02
2023-02-05T07:56:45.403Z,3.02
2023-02-05T07:57:45.414Z,3.05
2023-02-05T07:58:45.448Z,3.03
2023-02-05T07:59:45.501Z,3.02
2023-02-05T08:00:45.613Z,3.00
2023-02-05T08:01:45.599Z,3.09
2023-02-05T08:02:46.597Z,3.13
2023-02-05T08:03:45.648Z,3.10
2023-02-05T08:04:45.681Z,3.20
2023-02-05T08:05:46.598Z,3.13
2023-02-05T08:06:45.801Z,3.20
2023-02-05T08:07:45.824Z,3.21
2023-02-05T08:08:45.898Z,3.24
2023-02-05T08:09:45.889Z,3.30
2023-02-05T08:10:45.936Z,3.33
2023-02-05T08:11:45.985Z,3.40
2023-02-05T08:12:46.016Z,3.34
2023-02-05T08:13:46.104Z,3.46
2023-02-05T08:14:46.123Z,3.53
2023-02-05T08:15:46.133Z,3.64
2023-02-05T08:16:46.183Z,3.68
2023-02-05T08:17:46.217Z,3.76
2023-02-05T08:18:46.286Z,3.71
2023-02-05T08:19:46.320Z,3.71
2023-02-05T08:20:46.347Z,3.79
2023-02-05T08:21:46.412Z,3.78
2023-02-05T08:22:46.434Z,4.00
2023-02-05T08:23:46.477Z,3.89
2023-02-05T08:24:46.535Z,3.94
2023-02-05T08:25:46.552Z,4.00
2023-02-05T08:26:46.620Z,4.00
2023-02-05T08:27:46.653Z,4.04
2023-02-05T08:28:46.683Z,4.04
2023-02-05T08:29:46.714Z,4.01
2023-02-05T08:30:46.773Z,3.98
2023-02-05T08:31:46.893Z,3.98
2023-02-05T08:32:46.842Z,3.98
2023-02-05T08:33:46.896Z,4.00
2023-02-05T08:34:46.932Z,3.94
2023-02-05T08:35:46.992Z,3.86
2023-02-05T08:36:47.046Z,3.70
2023-02-05T08:37:47.051Z,3.78
2023-02-05T08:38:47.100Z,3.79
2023-02-05T08:39:47.139Z,3.90
2023-02-05T08:40:47.192Z,3.92
2023-02-05T08:41:47.257Z,3.96
2023-02-05T08:42:47.304Z,3.94
2023-02-05T08:43:47.305Z,3.89
2023-02-05T08:44:47.348Z,3.88
2023-02-05T08:45:47.414Z,3.80
2023-02-05T08:46:50.243Z,3.79
2023-02-05T08:47:47.496Z,3.83
2023-02-05T08:48:47.520Z,3.92
2023-02-05T08:49:47.562Z,3.88
2023-02-05T08:50:47.592Z,3.92
2023-02-05T08:51:47.657Z,3.97
2023-02-05T08:52:47.681Z,3.94
2023-02-05T08:53:47.727Z,3.94
2023-02-05T08:54:47.807Z,3.88
2023-02-05T08:55:47.804Z,3.85
2023-02-05T08:56:47.855Z,3.92
2023-02-05T08:57:47.898Z,3.80
2023-02-05T08:58:47.933Z,3.88
2023-02-05T08:59:48.014Z,4.04
2023-02-05T09:00:48.047Z,3.96
2023-02-05T09:01:48.072Z,3.94
2023-02-05T09:02:48.096Z,3.88
2023-02-05T09:03:48.139Z,3.92
2023-02-05T09:04:48.208Z,3.92
2023-02-05T09:05:48.221Z,3.92
2023-02-05T09:06:48.271Z,3.98
2023-02-05T09:07:48.312Z,3.97
2023-02-05T09:08:49.105Z,4.00
2023-02-05T09:09:48.410Z,4.03
2023-02-05T09:10:48.446Z,4.08
2023-02-05T09:11:48.509Z,4.10
2023-02-05T09:12:48.523Z,4.03
2023-02-05T09:13:48.601Z,3.90
2023-02-05T09:14:48.595Z,3.92
2023-02-05T09:15:49.613Z,3.89
2023-02-05T09:16:48.724Z,3.92
2023-02-05T09:17:48.727Z,3.89
2023-02-05T09:18:48.809Z,3.89
2023-02-05T09:19:48.809Z,3.96
2023-02-05T09:20:48.864Z,3.97
2023-02-05T09:21:48.893Z,3.96
2023-02-05T09:22:48.935Z,4.07
2023-02-05T09:23:49.006Z,3.92
2023-02-05T09:24:49.047Z,3.96
2023-02-05T09:25:49.065Z,3.98
2023-02-05T09:26:49.093Z,3.96
2023-02-05T09:27:49.143Z,3.96
2023-02-05T09:28:49.211Z,3.97
2023-02-05T09:29:49.218Z,3.97
2023-02-05T09:30:49.350Z,3.94
2023-02-05T09:31:49.381Z,3.96
2023-02-05T09:32:49.357Z,4.06
2023-02-05T09:33:49.391Z,4.01
2023-02-05T09:34:49.466Z,4.00
2023-02-05T09:35:49.503Z,4.12
2023-02-05T09:36:49.533Z,4.04
2023-02-05T09:37:49.557Z,4.19
2023-02-05T09:38:49.601Z,4.28
2023-02-05T09:40:20.855Z,4.18
2023-02-05T09:40:49.699Z,4.28
2023-02-05T09:41:49.741Z,4.44
2023-02-05T09:42:49.830Z,4.39
2023-02-05T09:43:49.804Z,4.50
2023-02-05T09:44:49.869Z,4.59
2023-02-05T09:45:50.025Z,4.61
2023-02-05T09:46:49.936Z,4.62
2023-02-05T09:47:49.977Z,4.75
2023-02-05T09:48:50.051Z,4.59
2023-02-05T09:49:50.078Z,4.75
2023-02-05T09:50:50.140Z,4.61
2023-02-05T09:51:50.141Z,4.55
2023-02-05T09:52:50.191Z,4.69
2023-02-05T09:53:50.257Z,4.70
2023-02-05T09:54:50.294Z,4.67
2023-02-05T09:55:50.316Z,4.64
2023-02-05T09:56:50.350Z,4.65
2023-02-05T09:57:50.393Z,4.61
2023-02-05T09:58:50.450Z,4.73
2023-02-05T09:59:50.500Z,4.70
2023-02-05T10:00:50.527Z,4.65
2023-02-05T10:01:50.567Z,4.50
2023-02-05T10:02:50.616Z,4.59
2023-02-05T10:03:50.674Z,4.79
2023-02-05T10:04:50.699Z,4.80
2023-02-05T10:05:50.733Z,4.89
2023-02-05T10:06:50.772Z,4.92
2023-02-05T10:07:50.814Z,5.02
2023-02-05T10:08:50.895Z,4.89
2023-02-05T10:09:50.907Z,4.80
2023-02-05T10:10:50.960Z,4.84
2023-02-05T10:11:51.019Z,4.77
2023-02-05T10:12:51.029Z,4.94
2023-02-05T10:13:51.082Z,4.89
2023-02-05T10:14:51.142Z,4.91
2023-02-05T10:15:51.197Z,4.95
2023-02-05T10:16:51.200Z,5.07
2023-02-05T10:17:51.242Z,4.95
2023-02-05T10:18:51.366Z,4.88
2023-02-05T10:19:51.328Z,4.98
2023-02-05T10:20:51.372Z,4.89
2023-02-05T10:21:52.112Z,4.98
2023-02-05T10:22:51.457Z,5.09
2023-02-05T10:23:51.529Z,5.22
2023-02-05T10:24:51.548Z,5.23
2023-02-05T10:25:51.614Z,5.20
2023-02-05T10:26:51.643Z,5.28
2023-02-05T10:27:51.715Z,5.45
2023-02-05T10:28:51.746Z,5.31
2023-02-05T10:29:51.768Z,5.38
2023-02-05T10:30:51.983Z,5.53
2023-02-05T10:31:51.968Z,5.53
2023-02-05T10:32:51.901Z,5.41
2023-02-05T10:33:51.948Z,5.53
2023-02-05T10:34:51.990Z,5.38
2023-02-05T10:35:52.034Z,5.66
2023-02-05T10:36:52.111Z,5.67
2023-02-05T10:37:52.112Z,5.70
2023-02-05T10:38:52.154Z,5.74
2023-02-05T10:39:52.241Z,5.74
2023-02-05T10:40:52.251Z,5.85
2023-02-05T10:41:53.122Z,5.83
2023-02-05T10:42:52.336Z,5.86
2023-02-05T10:43:52.398Z,5.92
2023-02-05T10:44:52.432Z,5.88
2023-02-05T10:45:52.466Z,5.96
2023-02-05T10:46:52.529Z,6.01
2023-02-05T10:47:52.565Z,6.09
2023-02-05T10:48:52.620Z,6.13
2023-02-05T10:49:59.701Z,6.11
2023-02-05T10:50:52.698Z,5.96
2023-02-05T10:51:52.740Z,5.86
2023-02-05T10:52:52.800Z,5.59
2023-02-05T10:53:52.820Z,5.55
2023-02-05T10:54:52.865Z,5.37
2023-02-05T10:55:52.944Z,5.22
2023-02-05T10:56:52.959Z,5.07
2023-02-05T10:57:53.029Z,5.14
2023-02-05T10:58:53.045Z,4.99
2023-02-05T10:59:53.091Z,4.94
2023-02-05T11:00:53.151Z,4.92
2023-02-05T11:01:53.204Z,4.95
2023-02-05T11:02:53.271Z,5.07
2023-02-05T11:03:53.252Z,5.05
2023-02-05T11:04:53.297Z,4.94
2023-02-05T11:05:53.350Z,4.99
2023-02-05T11:06:53.396Z,5.01
2023-02-05T11:07:53.463Z,5.14
2023-02-05T11:08:53.478Z,5.17
2023-02-05T11:09:53.536Z,5.19
2023-02-05T11:10:53.564Z,5.25
2023-02-05T11:11:53.614Z,5.22
2023-02-05T11:12:53.672Z,5.34
2023-02-05T11:13:53.692Z,5.32
2023-02-05T11:14:54.668Z,5.38
2023-02-05T11:15:53.793Z,5.48
2023-02-05T11:16:53.844Z,5.49
2023-02-05T11:17:53.854Z,5.50
2023-02-05T11:18:53.909Z,5.48
2023-02-05T11:19:53.941Z,5.64
2023-02-05T11:20:53.994Z,5.71
2023-02-05T11:21:54.067Z,5.71
2023-02-05T11:22:54.073Z,5.77
2023-02-05T11:23:54.146Z,5.75
2023-02-05T11:24:54.190Z,5.85
2023-02-05T11:25:54.220Z,5.86
2023-02-05T11:26:54.245Z,5.92
2023-02-05T11:27:54.366Z,6.01
2023-02-05T11:28:54.336Z,6.06
2023-02-05T11:29:54.403Z,6.04
2023-02-05T11:30:54.842Z,6.03
2023-02-05T11:31:54.546Z,6.00
2023-02-05T11:32:54.513Z,5.96
2023-02-05T11:33:54.549Z,5.95
2023-02-05T11:34:55.170Z,6.09
2023-02-05T11:35:54.657Z,6.13
2023-02-05T11:36:54.683Z,6.09
2023-02-05T11:37:54.734Z,6.14
2023-02-05T11:38:54.795Z,6.25
2023-02-05T11:39:54.842Z,6.35
2023-02-05T11:40:54.862Z,6.33
2023-02-05T11:41:54.937Z,6.36
2023-02-05T11:42:54.953Z,6.33
2023-02-05T11:43:54.996Z,6.29
2023-02-05T11:44:55.036Z,6.32
2023-02-05T11:45:55.083Z,6.32
2023-02-05T11:46:55.145Z,6.32
2023-02-05T11:47:55.163Z,6.22
2023-02-05T11:48:55.219Z,6.28
2023-02-05T11:49:55.253Z,6.22
2023-02-05T11:50:55.296Z,6.30
2023-02-05T11:51:55.376Z,6.38
2023-02-05T11:52:55.396Z,6.29
2023-02-05T11:53:55.430Z,6.11
2023-02-05T11:54:55.485Z,6.25
2023-02-05T11:55:55.520Z,6.13
2023-02-05T11:56:55.587Z,6.07
2023-02-05T11:57:55.604Z,6.07
2023-02-05T11:58:55.660Z,6.13
2023-02-05T11:59:55.698Z,6.29
2023-02-05T12:00:55.739Z,6.16
2023-02-05T12:01:55.870Z,6.29
2023-02-05T12:02:55.833Z,6.33
2023-02-05T12:03:55.879Z,6.36
2023-02-05T12:04:55.923Z,6.50
2023-02-05T12:05:55.964Z,6.66
2023-02-05T12:06:56.031Z,6.51
2023-02-05T12:07:56.053Z,6.46
2023-02-05T12:08:56.101Z,6.50
2023-02-05T12:09:56.162Z,6.58
2023-02-05T12:10:56.182Z,6.58
2023-02-05T12:11:56.225Z,6.51
2023-02-05T12:12:56.268Z,6.51
2023-02-05T12:13:56.350Z,6.48
2023-02-05T12:14:56.390Z,6.40
2023-02-05T12:15:56.457Z,6.41
2023-02-05T12:16:56.449Z,6.41
2023-02-05T12:17:56.500Z,6.28
2023-02-05T12:18:56.566Z,6.16
2023-02-05T12:19:56.589Z,6.09
2023-02-05T12:20:57.176Z,6.16
2023-02-05T12:21:56.670Z,6.09
2023-02-05T12:22:56.753Z,6.16
2023-02-05T12:23:56.765Z,6.29
2023-02-05T12:24:56.813Z,6.25
2023-02-05T12:25:56.896Z,6.25
2023-02-05T12:26:56.902Z,6.26
2023-02-05T12:27:56.965Z,6.13
2023-02-05T12:28:56.988Z,6.25
2023-02-05T12:29:57.031Z,6.16
2023-02-05T12:30:57.092Z,6.19
2023-02-05T12:31:57.156Z,6.22
2023-02-05T12:32:57.186Z,6.28
2023-02-05T12:33:57.199Z,6.35
2023-02-05T12:34:57.253Z,6.40
2023-02-05T12:35:57.286Z,6.43
2023-02-05T12:36:57.326Z,6.44
2023-02-05T12:37:57.397Z,6.47
2023-02-05T12:38:57.419Z,6.44
2023-02-05T12:39:57.466Z,6.43
2023-02-05T12:40:57.512Z,6.41
2023-02-05T12:41:57.573Z,6.36
2023-02-05T12:42:57.597Z,6.33
2023-02-05T12:43:57.637Z,6.35
2023-02-05T12:44:57.715Z,6.40
2023-02-05T12:45:57.769Z,6.47
2023-02-05T12:46:57.789Z,6.51
2023-02-05T12:47:57.812Z,6.33
2023-02-05T12:48:57.853Z,6.35
2023-02-05T12:49:57.922Z,6.25
2023-02-05T12:50:57.964Z,6.25
2023-02-05T12:51:57.999Z,6.10
2023-02-05T12:52:58.069Z,6.11
2023-02-05T12:53:58.068Z,6.13
2023-02-05T12:54:58.144Z,6.16
2023-02-05T12:55:58.174Z,6.10
2023-02-05T12:56:58.206Z,6.14
2023-02-05T12:57:58.276Z,6.00
2023-02-05T12:58:58.287Z,5.93
2023-02-05T12:59:58.336Z,6.01
2023-02-05T13:00:58.407Z,5.96
2023-02-05T13:01:58.449Z,6.01
2023-02-05T13:02:58.467Z,6.04
2023-02-05T13:04:00.249Z,6.06
2023-02-05T13:04:58.573Z,6.21
2023-02-05T13:05:58.604Z,6.26
2023-02-05T13:06:58.646Z,6.19
2023-02-05T13:07:58.708Z,6.16
2023-02-05T13:08:58.723Z,6.19
2023-02-05T13:10:00.908Z,6.11
2023-02-05T13:10:58.819Z,6.14
2023-02-05T13:11:59.683Z,6.14
2023-02-05T13:12:58.924Z,6.16
2023-02-05T13:13:58.953Z,6.03
2023-02-05T13:14:58.989Z,6.04
2023-02-05T13:15:59.064Z,6.00
2023-02-05T13:16:59.074Z,6.09
2023-02-05T13:17:59.138Z,5.98
2023-02-05T13:18:59.187Z,5.92